createdAt,value
2022-09-28T00:01:44.656Z,2.83
2022-09-28T00:04:12.228Z,2.67
2022-09-28T00:06:39.593Z,2.67
2022-09-28T00:09:06.316Z,3.03
2022-09-28T00:11:33.319Z,2.55
2022-09-28T00:14:03.543Z,1.70
2022-09-28T00:16:33.842Z,2.42
2022-09-28T00:19:00.445Z,2.95
2022-09-28T00:21:31.713Z,1.60
2022-09-28T00:24:12.659Z,1.55
2022-09-28T00:26:44.690Z,1.95
2022-09-28T00:29:24.986Z,2.00
2022-09-28T00:31:53.085Z,2.85
2022-09-28T00:34:20.224Z,2.15
2022-09-28T00:36:47.292Z,2.38
2022-09-28T00:39:15.366Z,1.75
2022-09-28T00:41:42.593Z,1.80
2022-09-28T00:44:27.559Z,2.53
2022-09-28T00:47:15.331Z,2.30
2022-09-28T00:50:05.766Z,1.65
2022-09-28T00:52:35.805Z,3.20
2022-09-28T00:55:04.950Z,3.83
2022-09-28T00:57:32.735Z,2.72
2022-09-28T01:00:00.981Z,3.70
2022-09-28T01:02:27.717Z,1.83
2022-09-28T01:04:59.384Z,2.65
2022-09-28T01:07:26.491Z,2.83
2022-09-28T01:09:54.199Z,3.95
2022-09-28T01:12:20.813Z,4.75
2022-09-28T01:14:47.861Z,4.22
2022-09-28T01:17:16.323Z,3.50
2022-09-28T01:20:13.377Z,3.75
2022-09-28T01:23:01.664Z,3.00
2022-09-28T01:25:41.732Z,4.00
2022-09-28T01:28:14.622Z,8.50
2022-09-28T01:30:56.426Z,8.73
2022-09-28T01:33:26.743Z,11.50
2022-09-28T01:36:12.079Z,8.77
2022-09-28T01:39:00.919Z,10.48
2022-09-28T01:41:30.200Z,6.32
2022-09-28T01:43:57.583Z,3.70
2022-09-28T01:46:28.161Z,5.65
2022-09-28T01:48:58.509Z,4.00
2022-09-28T01:51:43.959Z,3.58
2022-09-28T01:54:18.025Z,3.42
2022-09-28T01:56:54.508Z,4.75
2022-09-28T01:59:30.023Z,2.95
2022-09-28T02:02:04.114Z,3.00
2022-09-28T02:04:36.119Z,6.97
2022-09-28T02:07:13.465Z,5.03
2022-09-28T02:09:47.212Z,5.38
2022-09-28T02:12:20.149Z,4.65
2022-09-28T02:14:49.395Z,6.45
2022-09-28T02:17:16.291Z,5.38
2022-09-28T02:19:43.430Z,5.97
2022-09-28T02:22:29.687Z,4.82
2022-09-28T02:25:01.369Z,4.80
2022-09-28T02:27:35.541Z,4.57
2022-09-28T02:30:03.678Z,4.95
2022-09-28T02:32:32.365Z,6.35
2022-09-28T02:34:59.436Z,5.70
2022-09-28T02:37:27.397Z,5.30
2022-09-28T02:39:53.902Z,11.60
2022-09-28T02:42:25.754Z,10.30
2022-09-28T02:45:22.383Z,10.80
2022-09-28T02:47:58.487Z,7.10
2022-09-28T02:50:40.016Z,6.38
2022-09-28T02:53:14.465Z,5.90
2022-09-28T02:55:59.140Z,8.30
2022-09-28T02:58:55.014Z,8.35
2022-09-28T03:01:33.650Z,6.55
2022-09-28T03:04:12.561Z,8.43
2022-09-28T03:07:01.390Z,6.40
2022-09-28T03:09:56.088Z,4.78
2022-09-28T03:12:23.550Z,6.50
2022-09-28T03:15:06.844Z,6.55
2022-09-28T03:17:33.362Z,10.35
2022-09-28T03:19:59.901Z,8.68
2022-09-28T03:22:26.404Z,12.25
2022-09-28T03:24:52.946Z,8.25
2022-09-28T03:27:19.601Z,7.90
2022-09-28T03:29:46.147Z,7.88
2022-09-28T03:32:12.712Z,7.50
2022-09-28T03:34:42.393Z,6.90
2022-09-28T03:37:08.917Z,11.82
2022-09-28T03:39:35.461Z,7.10
2022-09-28T03:42:01.955Z,8.13
2022-09-28T03:44:31.272Z,10.05
2022-09-28T03:46:57.784Z,8.90
2022-09-28T03:49:24.292Z,8.88
2022-09-28T03:51:50.876Z,8.38
2022-09-28T03:54:17.530Z,8.45
2022-09-28T03:56:44.028Z,8.05
2022-09-28T03:59:10.745Z,7.38
2022-09-28T04:01:38.444Z,8.98
2022-09-28T04:04:04.997Z,6.07
2022-09-28T04:06:31.562Z,6.05
2022-09-28T04:08:58.177Z,4.85
2022-09-28T04:11:26.984Z,7.50
2022-09-28T04:13:53.628Z,7.00
2022-09-28T04:16:20.330Z,6.00
2022-09-28T04:18:48.371Z,5.82
2022-09-28T04:21:16.708Z,9.18
2022-09-28T04:23:44.276Z,7.80
2022-09-28T04:26:20.209Z,5.30
2022-09-28T04:29:06.911Z,9.73
2022-09-28T04:31:42.269Z,10.57
2022-09-28T04:34:09.037Z,12.50
2022-09-28T04:36:35.649Z,9.38
2022-09-28T04:39:02.287Z,9.27
2022-09-28T04:41:28.915Z,10.82
2022-09-28T04:43:55.434Z,7.88
2022-09-28T04:46:22.090Z,7.50
2022-09-28T04:48:48.590Z,10.43
2022-09-28T04:51:15.193Z,7.70
2022-09-28T04:53:41.806Z,8.95
2022-09-28T04:56:11.693Z,7.32
2022-09-28T04:58:41.305Z,7.07
2022-09-28T05:01:11.715Z,5.97
2022-09-28T05:03:39.425Z,8.35
2022-09-28T05:06:08.775Z,6.30
2022-09-28T05:08:35.860Z,5.57
2022-09-28T05:11:07.134Z,6.25
2022-09-28T05:13:40.748Z,6.70
2022-09-28T05:16:08.014Z,7.35
2022-09-28T05:18:39.314Z,10.10
2022-09-28T05:21:13.570Z,7.75
2022-09-28T05:23:40.965Z,11.75
2022-09-28T05:26:07.849Z,7.20
2022-09-28T05:28:35.450Z,7.82
2022-09-28T05:31:03.568Z,4.97
2022-09-28T05:33:31.119Z,5.07
2022-09-28T05:36:01.354Z,5.10
2022-09-28T05:38:28.955Z,4.88
2022-09-28T05:40:56.156Z,7.78
2022-09-28T05:43:22.811Z,5.70
2022-09-28T05:45:53.010Z,5.90
2022-09-28T05:48:22.053Z,4.47
2022-09-28T05:50:52.737Z,3.40
2022-09-28T05:53:19.587Z,7.22
2022-09-28T05:55:46.185Z,5.60
2022-09-28T05:58:12.872Z,5.47
2022-09-28T06:00:39.598Z,6.95
2022-09-28T06:03:09.492Z,7.65
2022-09-28T06:05:36.851Z,10.85
2022-09-28T06:08:08.269Z,7.45
2022-09-28T06:10:34.951Z,10.60
2022-09-28T06:13:02.130Z,8.82
2022-09-28T06:15:30.714Z,11.50
2022-09-28T06:18:00.997Z,13.75
2022-09-28T06:20:29.187Z,17.50
2022-09-28T06:22:56.054Z,17.88
2022-09-28T06:25:23.580Z,13.43
2022-09-28T06:28:01.285Z,10.88
2022-09-28T06:30:29.142Z,5.80
2022-09-28T06:32:57.458Z,8.27
2022-09-28T06:35:25.497Z,4.80
2022-09-28T06:37:52.638Z,5.25
2022-09-28T06:40:20.372Z,5.55
2022-09-28T06:43:01.188Z,4.40
2022-09-28T06:45:28.856Z,7.78
2022-09-28T06:47:57.477Z,6.60
2022-09-28T06:50:28.584Z,4.90
2022-09-28T06:52:55.455Z,5.82
2022-09-28T06:55:22.216Z,4.82
2022-09-28T06:57:59.896Z,6.38
2022-09-28T07:00:27.917Z,5.85
2022-09-28T07:02:54.453Z,7.03
2022-09-28T07:05:26.804Z,5.60
2022-09-28T07:07:58.866Z,6.70
2022-09-28T07:10:28.003Z,6.78
2022-09-28T07:12:55.814Z,5.05
2022-09-28T07:15:22.860Z,7.35
2022-09-28T07:17:59.748Z,6.30
2022-09-28T07:20:29.128Z,6.00
2022-09-28T07:22:58.673Z,5.75
2022-09-28T07:25:32.342Z,7.55
2022-09-28T07:27:59.938Z,5.95
2022-09-28T07:30:28.324Z,4.20
2022-09-28T07:32:55.133Z,5.75
2022-09-28T07:35:22.326Z,6.03
2022-09-28T07:37:48.839Z,5.80
2022-09-28T07:40:34.146Z,5.72
2022-09-28T07:43:07.787Z,5.57
2022-09-28T07:45:36.119Z,4.57
2022-09-28T07:48:03.116Z,5.55
2022-09-28T07:50:30.025Z,5.25
2022-09-28T07:52:57.649Z,5.70
2022-09-28T07:55:24.825Z,7.85
2022-09-28T07:58:01.011Z,5.40
2022-09-28T08:00:33.244Z,5.03
2022-09-28T08:03:03.571Z,5.10
2022-09-28T08:05:32.506Z,6.03
2022-09-28T08:07:59.673Z,6.65
2022-09-28T08:10:30.384Z,5.55
2022-09-28T08:13:00.533Z,8.85
2022-09-28T08:15:35.030Z,9.18
2022-09-28T08:18:02.928Z,6.88
2022-09-28T08:20:51.637Z,7.53
2022-09-28T08:23:18.678Z,6.18
2022-09-28T08:25:52.738Z,7.90
2022-09-28T08:28:20.360Z,10.20
2022-09-28T08:30:47.705Z,7.80
2022-09-28T08:33:15.376Z,8.20
2022-09-28T08:35:42.004Z,6.88
2022-09-28T08:38:09.277Z,6.07
2022-09-28T08:40:50.238Z,7.72
2022-09-28T08:43:45.481Z,5.20
2022-09-28T08:46:14.110Z,5.35
2022-09-28T08:49:25.911Z,5.13
2022-09-28T08:52:05.107Z,6.07
2022-09-28T08:54:48.841Z,5.57
2022-09-28T08:57:21.322Z,4.45
2022-09-28T08:59:56.876Z,7.82
2022-09-28T09:02:33.799Z,9.10
2022-09-28T09:05:04.353Z,5.05
2022-09-28T09:07:46.156Z,3.72
2022-09-28T09:10:36.306Z,5.72
2022-09-28T09:13:21.392Z,5.65
2022-09-28T09:15:57.753Z,5.07
2022-09-28T09:18:37.272Z,5.18
2022-09-28T09:21:39.506Z,4.53
2022-09-28T09:24:27.428Z,4.45
2022-09-28T09:27:13.135Z,4.95
2022-09-28T09:29:55.096Z,5.95
2022-09-28T09:32:49.340Z,5.20
2022-09-28T09:35:53.363Z,3.92
2022-09-28T09:38:43.487Z,5.63
2022-09-28T09:41:43.987Z,6.40
2022-09-28T09:44:23.121Z,7.30
2022-09-28T09:46:59.774Z,5.70
2022-09-28T09:49:34.913Z,8.13
2022-09-28T09:52:10.021Z,3.67
2022-09-28T09:54:44.851Z,5.70
2022-09-28T10:22:56.841Z,3.45
2022-09-28T10:25:24.971Z,5.20
2022-09-28T10:27:52.708Z,4.22
2022-09-28T10:30:28.167Z,4.63
2022-09-28T10:32:59.371Z,3.60
2022-09-28T10:35:28.552Z,4.78
2022-09-28T10:37:59.395Z,4.95
2022-09-28T10:40:38.948Z,6.10
2022-09-28T10:43:28.889Z,3.70
2022-09-28T10:46:13.096Z,5.18
2022-09-28T10:48:45.829Z,5.70
2022-09-28T10:51:12.450Z,4.38
2022-09-28T10:53:40.137Z,5.00
2022-09-28T10:56:28.794Z,5.57
2022-09-28T10:58:56.012Z,4.93
2022-09-28T11:01:33.828Z,4.15
2022-09-28T11:04:14.686Z,3.65
2022-09-28T11:06:44.794Z,6.07
2022-09-28T11:09:40.466Z,5.15
2022-09-28T11:12:15.699Z,6.18
2022-09-28T11:14:53.043Z,3.58
2022-09-28T11:17:43.908Z,4.85
2022-09-28T11:20:28.953Z,3.38
2022-09-28T11:23:30.200Z,3.83
2022-09-28T11:26:08.364Z,2.47
2022-09-28T11:28:46.115Z,4.20
2022-09-28T11:31:19.094Z,5.28
2022-09-28T11:34:18.563Z,4.18
2022-09-28T11:37:18.457Z,5.78
2022-09-28T11:43:44.816Z,3.78
2022-09-28T12:13:05.234Z,7.85
2022-09-28T12:16:11.618Z,5.07
2022-09-28T12:18:54.282Z,3.55
2022-09-28T12:21:33.437Z,4.97
2022-09-28T12:24:23.559Z,3.83
2022-09-28T12:26:56.325Z,3.08
2022-09-28T12:29:36.772Z,4.78
2022-09-28T12:32:37.709Z,4.90
2022-09-28T12:35:12.418Z,6.05
2022-09-28T12:37:53.933Z,3.38
2022-09-28T12:40:32.941Z,4.55
2022-09-28T12:43:33.600Z,3.50
2022-09-28T12:46:34.909Z,5.05
2022-09-28T12:50:33.418Z,8.30
2022-09-28T12:52:39.379Z,8.25
2022-09-28T12:55:56.555Z,7.40
2022-09-28T12:58:44.664Z,6.47
2022-09-28T13:01:23.994Z,4.93
2022-09-28T13:03:59.715Z,4.88
2022-09-28T13:06:44.365Z,6.47
2022-09-28T13:09:22.588Z,7.95
2022-09-28T13:12:00.157Z,3.58
2022-09-28T13:14:43.138Z,7.75
2022-09-28T13:17:26.333Z,5.28
2022-09-28T13:20:32.148Z,17.77
2022-09-28T13:23:20.325Z,4.43
2022-09-28T13:25:53.916Z,5.90
2022-09-28T13:28:26.246Z,4.30
2022-09-28T13:30:55.799Z,2.47
2022-09-28T13:33:43.914Z,2.97
2022-09-28T13:36:28.578Z,3.10
2022-09-28T13:38:56.700Z,3.00
2022-09-28T13:41:28.966Z,2.92
2022-09-28T13:44:10.899Z,3.85
2022-09-28T13:47:08.592Z,4.43
2022-09-28T13:50:09.582Z,3.28
2022-09-28T13:53:15.371Z,3.38
2022-09-28T13:55:49.923Z,3.05
2022-09-28T13:58:30.199Z,3.08
2022-09-28T14:01:19.173Z,3.97
2022-09-28T14:04:25.588Z,5.60
2022-09-28T14:07:16.796Z,6.40
2022-09-28T14:10:06.415Z,2.85
2022-09-28T14:12:32.814Z,2.63
2022-09-28T14:14:59.980Z,3.05
2022-09-28T14:17:29.267Z,2.28
2022-09-28T14:20:09.232Z,2.20
2022-09-28T14:23:10.706Z,6.55
2022-09-28T14:26:12.272Z,2.72
2022-09-28T14:29:09.990Z,3.30
2022-09-28T14:31:41.115Z,2.25
2022-09-28T14:34:24.253Z,2.20
2022-09-28T14:37:23.527Z,1.98
2022-09-28T14:40:09.395Z,2.97
2022-09-28T14:42:36.049Z,3.22
2022-09-28T14:45:06.196Z,2.22
2022-09-28T14:47:43.303Z,3.85
2022-09-28T14:50:29.901Z,4.03
2022-09-28T14:53:14.140Z,2.13
2022-09-28T14:55:50.228Z,2.20
2022-09-28T14:58:36.754Z,2.38
2022-09-28T15:01:06.410Z,3.30
2022-09-28T15:03:35.615Z,2.17
2022-09-28T15:06:02.267Z,5.13
2022-09-28T15:11:06.396Z,5.50
2022-09-28T15:13:33.115Z,3.75
2022-09-28T15:16:00.680Z,5.05
2022-09-28T15:18:49.464Z,4.30
2022-09-28T15:21:16.406Z,3.60
2022-09-28T15:23:44.309Z,3.95
2022-09-28T15:26:21.900Z,5.90
2022-09-28T15:28:48.442Z,5.25
2022-09-28T15:31:30.684Z,4.97
2022-09-28T15:34:15.677Z,3.03
2022-09-28T15:36:44.373Z,3.30
2022-09-28T15:39:22.856Z,3.38
2022-09-28T15:41:55.027Z,2.47
2022-09-28T15:44:56.527Z,1.95
2022-09-28T15:47:38.911Z,3.30
2022-09-28T15:50:31.200Z,4.00
2022-09-28T15:53:12.395Z,3.13
2022-09-28T15:55:48.773Z,3.63
2022-09-28T15:58:20.529Z,2.08
2022-09-28T16:00:51.878Z,4.00
2022-09-28T16:03:31.214Z,6.90
2022-09-28T16:05:57.710Z,8.60
2022-09-28T16:09:00.336Z,6.63
2022-09-28T16:11:54.047Z,4.72
2022-09-28T16:14:40.384Z,3.85
2022-09-28T16:17:33.347Z,3.30
2022-09-28T16:20:01.872Z,4.63
2022-09-28T16:22:29.008Z,4.72
2022-09-28T16:25:00.144Z,4.95
2022-09-28T16:27:40.288Z,4.10
2022-09-28T16:30:32.676Z,3.70
2022-09-28T16:33:06.295Z,4.25
2022-09-28T16:35:52.614Z,4.32
2022-09-28T16:38:28.296Z,3.40
2022-09-28T16:41:03.107Z,3.58
2022-09-28T16:43:37.578Z,3.25
2022-09-28T16:46:22.358Z,3.78
2022-09-28T16:48:52.747Z,2.25
2022-09-28T16:51:23.552Z,3.00
2022-09-28T16:54:13.832Z,5.63
2022-09-28T16:56:40.915Z,6.25
2022-09-28T16:59:14.090Z,4.90
2022-09-28T17:01:43.950Z,6.03
2022-09-28T17:04:11.544Z,7.85
2022-09-28T17:06:39.003Z,9.30
2022-09-28T17:09:07.184Z,6.55
2022-09-28T17:11:36.937Z,6.50
2022-09-28T17:14:10.437Z,5.85
2022-09-28T17:19:33.516Z,6.80
2022-09-28T17:22:00.617Z,6.00
2022-09-28T17:24:30.277Z,6.60
2022-09-28T17:26:57.322Z,5.65
2022-09-28T17:29:23.988Z,7.47
2022-09-28T17:31:50.613Z,10.82
2022-09-28T17:34:18.122Z,9.55
2022-09-28T17:36:45.045Z,6.60
2022-09-28T17:39:15.541Z,7.35
2022-09-28T17:41:42.134Z,12.63
2022-09-28T17:44:08.741Z,6.65
2022-09-28T17:46:40.816Z,6.28
2022-09-28T17:49:10.674Z,7.38
2022-09-28T17:51:39.324Z,12.27
2022-09-28T17:54:09.850Z,7.63
2022-09-28T17:56:45.659Z,5.38
2022-09-28T17:59:18.399Z,4.05
2022-09-28T18:01:45.294Z,5.15
2022-09-28T18:04:33.306Z,3.85
2022-09-28T18:07:02.166Z,5.32
2022-09-28T18:09:28.824Z,5.10
2022-09-28T18:12:04.790Z,4.15
2022-09-28T18:14:34.035Z,3.85
2022-09-28T18:17:00.563Z,4.05
2022-09-28T18:19:31.802Z,3.88
2022-09-28T18:21:58.705Z,2.80
2022-09-28T18:24:25.261Z,3.80
2022-09-28T18:26:51.812Z,4.40
2022-09-28T18:29:18.545Z,5.65
2022-09-28T18:31:45.116Z,4.25
2022-09-28T18:34:12.472Z,2.95
2022-09-28T18:36:39.043Z,2.67
2022-09-28T18:39:08.034Z,2.85
2022-09-28T18:41:34.557Z,4.47
2022-09-28T18:44:01.281Z,4.47
2022-09-28T18:46:29.152Z,3.65
2022-09-28T18:48:56.344Z,2.60
2022-09-28T18:51:22.937Z,3.97
2022-09-28T18:53:50.098Z,9.75
2022-09-28T18:56:21.168Z,14.30
2022-09-28T18:58:51.607Z,17.23
2022-09-28T19:01:35.239Z,25.75
2022-09-28T19:04:04.717Z,18.40
2022-09-28T19:06:32.077Z,12.07
2022-09-28T19:08:58.903Z,10.63
2022-09-28T19:11:25.955Z,7.72
2022-09-28T19:13:54.132Z,6.00
2022-09-28T19:16:22.871Z,5.03
2022-09-28T19:18:51.419Z,3.38
2022-09-28T19:21:18.161Z,3.88
2022-09-28T19:23:49.255Z,3.75
2022-09-28T19:26:19.062Z,3.78
2022-09-28T19:28:45.713Z,4.80
2022-09-28T19:31:12.754Z,3.05
2022-09-28T19:33:40.473Z,5.30
2022-09-28T19:36:09.980Z,7.63
2022-09-28T19:38:37.957Z,11.23
2022-09-28T19:41:12.403Z,8.48
2022-09-28T19:43:39.098Z,4.50
2022-09-28T19:46:06.763Z,5.35
2022-09-28T19:48:35.353Z,2.83
2022-09-28T19:51:04.280Z,2.80
2022-09-28T19:53:36.871Z,5.05
2022-09-28T19:56:07.797Z,3.97
2022-09-28T19:58:36.315Z,3.08
2022-09-28T20:01:06.626Z,4.25
2022-09-28T20:03:34.230Z,5.20
2022-09-28T20:06:01.829Z,5.30
2022-09-28T20:08:30.229Z,7.13
2022-09-28T20:10:59.632Z,5.75
2022-09-28T20:13:35.195Z,3.20
2022-09-28T20:16:10.367Z,7.45
2022-09-28T20:18:50.110Z,3.72
2022-09-28T20:21:20.106Z,3.85
2022-09-28T20:23:47.453Z,5.28
2022-09-28T20:26:15.268Z,2.85
2022-09-28T20:28:41.927Z,3.63
2022-09-28T20:31:13.990Z,4.35
2022-09-28T20:33:49.909Z,3.30
2022-09-28T20:36:19.030Z,4.15
2022-09-28T20:38:53.660Z,6.28
2022-09-28T20:41:22.767Z,5.65
2022-09-28T20:43:57.610Z,5.65
2022-09-28T20:46:28.079Z,5.25
2022-09-28T20:48:55.860Z,6.32
2022-09-28T20:51:22.759Z,5.90
2022-09-28T20:53:54.465Z,4.10
2022-09-28T20:56:34.710Z,3.08
2022-09-28T20:59:01.212Z,4.55
2022-09-28T21:01:29.883Z,3.40
2022-09-28T21:04:01.845Z,3.33
2022-09-28T21:06:31.160Z,4.20
2022-09-28T21:08:58.144Z,3.88
2022-09-28T21:11:26.219Z,5.30
2022-09-28T21:13:54.633Z,4.50
2022-09-28T21:16:21.548Z,3.72
2022-09-28T21:18:48.380Z,3.92
2022-09-28T21:21:17.108Z,3.60
2022-09-28T21:23:44.927Z,4.78
2022-09-28T21:26:13.500Z,4.95
2022-09-28T21:28:40.420Z,3.47
2022-09-28T21:31:09.533Z,4.03
2022-09-28T21:33:36.189Z,5.55
2022-09-28T21:36:04.396Z,3.80
2022-09-28T21:38:31.167Z,4.35
2022-09-28T21:40:59.069Z,4.55
2022-09-28T21:43:27.602Z,3.75
2022-09-28T21:45:55.961Z,3.58
2022-09-28T21:48:23.880Z,3.35
2022-09-28T21:51:05.483Z,4.32
2022-09-28T21:53:36.719Z,3.53
2022-09-28T21:56:05.301Z,6.00
2022-09-28T21:58:33.578Z,4.72
2022-09-28T22:01:07.427Z,6.13
2022-09-28T22:03:37.898Z,5.78
2022-09-28T22:06:05.294Z,5.57
2022-09-28T22:08:32.538Z,5.40
2022-09-28T22:11:01.280Z,6.88
2022-09-28T22:13:33.251Z,5.82
2022-09-28T22:16:00.190Z,5.47
2022-09-28T22:18:28.342Z,4.32
2022-09-28T22:21:11.407Z,5.68
2022-09-28T22:23:38.722Z,5.93
2022-09-28T22:26:08.645Z,5.93
2022-09-28T22:28:35.428Z,4.25
2022-09-28T22:31:02.049Z,4.20
2022-09-28T22:33:28.661Z,4.18
2022-09-28T22:35:55.482Z,5.15
2022-09-28T22:38:24.002Z,4.15
2022-09-28T22:40:52.911Z,4.22
2022-09-28T22:43:24.479Z,5.90
2022-09-28T22:46:00.446Z,4.03
2022-09-28T22:48:27.012Z,6.32
2022-09-28T22:50:53.544Z,4.07
2022-09-28T22:53:20.079Z,3.88
2022-09-28T22:55:46.671Z,4.05
2022-09-28T22:58:13.744Z,4.22
2022-09-28T23:00:40.297Z,4.72
2022-09-28T23:03:07.331Z,4.65
2022-09-28T23:05:33.959Z,4.22
